createdAt,value
2023-02-14T00:00:29.364Z,11.74
2023-02-14T00:05:29.351Z,11.38
2023-02-14T00:10:29.347Z,11.29
2023-02-14T00:15:29.380Z,10.15
2023-02-14T00:20:29.347Z,11.18
2023-02-14T00:25:29.357Z,10.91
2023-02-14T00:30:29.430Z,11.04
2023-02-14T00:35:29.376Z,11.07
2023-02-14T00:40:29.396Z,10.84
2023-02-14T00:45:29.408Z,11.1
2023-02-14T00:50:29.365Z,10.79
2023-02-14T00:55:29.407Z,10.94
2023-02-14T01:00:29.448Z,10.4
2023-02-14T01:05:29.405Z,10.21
2023-02-14T01:10:29.399Z,10.22
2023-02-14T01:15:29.400Z,10.44
2023-02-14T01:20:29.371Z,10.44
2023-02-14T01:25:29.389Z,10
2023-02-14T01:30:29.442Z,9.96
2023-02-14T01:35:29.402Z,9.88
2023-02-14T01:40:29.413Z,9.37
2023-02-14T01:45:29.458Z,9.39
2023-02-14T01:50:29.426Z,9.14
2023-02-14T01:55:29.408Z,8.86
2023-02-14T02:00:29.429Z,8.57
2023-02-14T02:05:29.444Z,8.88
2023-02-14T02:10:29.446Z,8.44
2023-02-14T02:15:29.421Z,9.01
2023-02-14T02:20:29.440Z,8.72
2023-02-14T02:25:29.437Z,8.78
2023-02-14T02:30:29.607Z,8.81
2023-02-14T02:35:29.426Z,8.95
2023-02-14T02:40:29.402Z,9.15
2023-02-14T02:45:29.414Z,8.91
2023-02-14T02:50:29.408Z,9.2
2023-02-14T02:55:29.425Z,9.44
2023-02-14T03:00:29.415Z,9.63
2023-02-14T03:05:29.418Z,9.76
2023-02-14T03:10:29.451Z,9.62
2023-02-14T03:15:29.455Z,9.79
2023-02-14T03:20:29.424Z,9.57
2023-02-14T03:25:29.460Z,9.77
2023-02-14T03:30:29.503Z,9.21
2023-02-14T03:35:29.437Z,9.55
2023-02-14T03:40:29.433Z,9.36
2023-02-14T03:45:29.447Z,9.23
2023-02-14T03:50:29.454Z,9.17
2023-02-14T03:55:29.446Z,9.23
2023-02-14T04:00:29.427Z,9.42
2023-02-14T04:05:29.452Z,9.54
2023-02-14T04:10:29.454Z,9.48
2023-02-14T04:15:29.456Z,9.31
2023-02-14T04:20:29.458Z,9.36
2023-02-14T04:25:29.447Z,9.23
2023-02-14T04:30:29.540Z,9.21
2023-02-14T04:35:29.444Z,9.35
2023-02-14T04:40:29.504Z,9.32
2023-02-14T04:45:29.465Z,9.59
2023-02-14T04:50:29.484Z,9.88
2023-02-14T04:55:29.471Z,10.13
2023-02-14T05:00:29.494Z,10.42
2023-02-14T05:05:29.491Z,10.76
2023-02-14T05:10:29.455Z,10.5
2023-02-14T05:15:29.480Z,10.6
2023-02-14T05:20:29.472Z,10.69
2023-02-14T05:25:29.477Z,11.09
2023-02-14T05:30:29.536Z,11.12
2023-02-14T05:35:29.465Z,10.95
2023-02-14T05:40:29.540Z,11.42
2023-02-14T05:45:29.529Z,11.02
2023-02-14T05:50:29.469Z,11.2
2023-02-14T05:55:29.495Z,11.47
2023-02-14T06:00:29.486Z,11.86
2023-02-14T06:05:29.481Z,12.04
2023-02-14T06:10:29.477Z,13.17
2023-02-14T06:15:29.494Z,13.21
2023-02-14T06:20:29.493Z,12.94
2023-02-14T06:25:29.505Z,13.14
2023-02-14T06:30:29.634Z,12
2023-02-14T06:35:29.511Z,12.74
2023-02-14T06:40:29.491Z,12.36
2023-02-14T06:45:29.506Z,12.68
2023-02-14T06:50:29.490Z,12.08
2023-02-14T06:55:29.506Z,12.08
2023-02-14T07:00:29.531Z,12.5
2023-02-14T07:05:29.560Z,12.28
2023-02-14T07:10:29.528Z,12.84
2023-02-14T07:15:29.542Z,12.61
2023-02-14T07:20:29.573Z,12.5
2023-02-14T07:25:29.512Z,12.84
2023-02-14T07:30:29.580Z,12.44
2023-02-14T07:35:29.548Z,12.01
2023-02-14T07:40:29.512Z,12.57
2023-02-14T07:45:29.537Z,13.01
2023-02-14T07:50:29.521Z,13.1
2023-02-14T07:55:29.535Z,12.58
2023-02-14T08:00:29.540Z,12.38
2023-02-14T08:05:29.571Z,12.95
2023-02-14T08:10:29.507Z,13.09
2023-02-14T08:15:29.539Z,13.31
2023-02-14T08:20:29.556Z,12.64
2023-02-14T08:25:29.520Z,13.25
2023-02-14T08:30:29.567Z,13.58
2023-02-14T08:35:29.533Z,14.1
2023-02-14T08:40:29.532Z,14.21
2023-02-14T08:45:29.526Z,13.37
2023-02-14T08:50:29.530Z,13.76
2023-02-14T08:55:29.615Z,13.93
2023-02-14T09:00:29.605Z,14.03
2023-02-14T09:05:29.551Z,14.36
2023-02-14T09:10:29.535Z,13.76
2023-02-14T09:15:29.561Z,14.46
2023-02-14T09:20:29.548Z,13.73
2023-02-14T09:25:29.583Z,14.51
2023-02-14T09:30:29.573Z,15.65
2023-02-14T09:35:29.569Z,16.6
2023-02-14T09:40:29.557Z,15.29
2023-02-14T09:45:29.632Z,15.3
2023-02-14T09:50:29.554Z,16.13
2023-02-14T09:55:29.564Z,18.38
2023-02-14T10:00:29.559Z,15.59
2023-02-14T10:05:29.572Z,14.07
2023-02-14T10:10:29.567Z,20.12
2023-02-14T10:15:29.565Z,17.34
2023-02-14T10:20:29.572Z,22.62
2023-02-14T10:25:29.588Z,55.19
2023-02-14T10:30:29.748Z,36.78
2023-02-14T10:35:29.576Z,21.27
2023-02-14T10:40:29.602Z,17.36
2023-02-14T10:45:29.585Z,27.26
2023-02-14T10:50:29.606Z,19.46
2023-02-14T10:55:32.587Z,22.04
2023-02-14T11:00:29.576Z,16.24
2023-02-14T11:05:29.604Z,15.38
2023-02-14T11:10:29.580Z,13.29
2023-02-14T11:15:29.638Z,12.18
2023-02-14T11:20:29.627Z,11.37
2023-02-14T11:25:29.591Z,11.79
2023-02-14T11:30:29.701Z,12.27
2023-02-14T11:35:29.598Z,12.75
2023-02-14T11:40:29.596Z,14.4
2023-02-14T11:45:29.643Z,14.83
2023-02-14T11:50:29.600Z,13.08
2023-02-14T11:55:29.619Z,12.98
2023-02-14T12:00:29.649Z,13.29
2023-02-14T12:05:29.670Z,23.17
2023-02-14T12:10:29.645Z,29.24
2023-02-14T12:15:29.748Z,16.45
2023-02-14T12:20:29.636Z,18.01
2023-02-14T12:25:29.629Z,15.01
2023-02-14T12:30:29.651Z,14.37
2023-02-14T12:35:29.632Z,15.82
2023-02-14T12:40:29.632Z,14.23
2023-02-14T12:45:29.668Z,12.93
2023-02-14T12:50:29.629Z,12.19
2023-02-14T12:55:29.639Z,12.31
2023-02-14T13:00:29.659Z,12.33
2023-02-14T13:05:29.636Z,12.48
2023-02-14T13:10:30.125Z,13.49
2023-02-14T13:15:29.701Z,12.76
2023-02-14T13:20:29.729Z,12.93
2023-02-14T13:25:29.641Z,12.39
2023-02-14T13:30:30.003Z,13.7
2023-02-14T13:35:30.102Z,12.59
2023-02-14T13:40:29.700Z,16.13
2023-02-14T13:45:29.683Z,13.44
2023-02-14T13:50:29.642Z,13.96
2023-02-14T13:55:29.699Z,14.61
2023-02-14T14:00:30.141Z,15.69
2023-02-14T14:05:29.709Z,14.86
2023-02-14T14:10:29.659Z,13.85
2023-02-14T14:15:29.665Z,12.98
2023-02-14T14:20:29.668Z,18.51
2023-02-14T14:25:29.666Z,22.94
2023-02-14T14:30:29.734Z,24.34
2023-02-14T14:35:29.675Z,21.32
2023-02-14T14:40:29.669Z,14.5
2023-02-14T14:45:29.747Z,17.98
2023-02-14T14:50:29.688Z,17.72
2023-02-14T14:55:29.674Z,17.69
2023-02-14T15:00:29.700Z,17.84
2023-02-14T15:05:29.683Z,24.05
2023-02-14T15:10:29.681Z,33.35
2023-02-14T15:15:29.697Z,24.96
2023-02-14T15:20:29.718Z,18.58
2023-02-14T15:25:29.705Z,20.46
2023-02-14T15:30:29.823Z,20.4
2023-02-14T15:35:29.710Z,21.18
2023-02-14T15:40:29.701Z,22.69
2023-02-14T15:45:29.702Z,18.01
2023-02-14T15:50:29.735Z,19
2023-02-14T15:55:29.747Z,21.94
2023-02-14T16:00:29.707Z,20.34
2023-02-14T16:05:29.705Z,19.85
2023-02-14T16:10:29.705Z,20.17
2023-02-14T16:15:29.723Z,24.06
2023-02-14T16:20:29.749Z,23.83
2023-02-14T16:25:29.727Z,26.93
2023-02-14T16:30:29.719Z,26.07
2023-02-14T16:35:29.721Z,33.22
2023-02-14T16:40:29.712Z,34.19
2023-02-14T16:45:29.746Z,35.11
2023-02-14T16:50:29.746Z,30.93
2023-02-14T16:55:29.732Z,35.23
2023-02-14T17:00:29.717Z,52.82
2023-02-14T17:05:29.766Z,45.46
2023-02-14T17:10:29.774Z,34.81
2023-02-14T17:15:29.741Z,32.62
2023-02-14T17:20:29.736Z,38.67
2023-02-14T17:25:29.759Z,29.67
2023-02-14T17:30:29.816Z,26.44
2023-02-14T17:35:29.743Z,27.73
2023-02-14T17:40:29.766Z,26.4
2023-02-14T17:45:29.779Z,24.61
2023-02-14T17:50:29.731Z,23.51
2023-02-14T17:55:29.758Z,25.26
2023-02-14T18:00:29.757Z,26.17
2023-02-14T18:05:29.750Z,24.49
2023-02-14T18:10:29.738Z,22.66
2023-02-14T18:15:29.781Z,26.13
2023-02-14T18:20:29.766Z,27.8
2023-02-14T18:25:29.759Z,28.5
2023-02-14T18:35:29.773Z,31.18
2023-02-14T18:40:29.758Z,29.04
2023-02-14T18:45:29.781Z,27.83
2023-02-14T18:50:29.757Z,31.42
2023-02-14T18:55:29.754Z,31.37
2023-02-14T19:00:29.755Z,28.47
2023-02-14T19:05:29.783Z,27.49
2023-02-14T19:10:29.797Z,27.99
2023-02-14T19:15:29.775Z,28.56
2023-02-14T19:20:29.772Z,27.89
2023-02-14T19:25:29.784Z,28.58
2023-02-14T19:30:29.837Z,27.66
2023-02-14T19:35:29.804Z,26.14
2023-02-14T19:40:29.782Z,25.36
2023-02-14T19:45:29.845Z,24.06
2023-02-14T19:50:30.836Z,23.97
2023-02-14T19:55:29.800Z,21.56
2023-02-14T20:00:29.786Z,24.11
2023-02-14T20:05:29.820Z,24.53
2023-02-14T20:10:29.821Z,23.59
2023-02-14T20:15:29.806Z,23.21
2023-02-14T20:20:29.787Z,22.46
2023-02-14T20:25:29.794Z,22.81
2023-02-14T20:30:29.827Z,21.39
2023-02-14T20:35:29.811Z,22.59
2023-02-14T20:40:29.838Z,22.32
2023-02-14T20:45:29.877Z,22.65
2023-02-14T20:50:29.800Z,23.87
2023-02-14T20:55:29.806Z,21.73
2023-02-14T21:00:29.805Z,24.02
2023-02-14T21:05:29.821Z,22.46
2023-02-14T21:10:29.812Z,21.07
2023-02-14T21:15:29.829Z,22.35
2023-02-14T21:20:29.826Z,20.67
2023-02-14T21:25:29.821Z,20.24
2023-02-14T21:30:29.819Z,21.62
2023-02-14T21:35:29.826Z,20.78
2023-02-14T21:40:29.831Z,24.17
2023-02-14T21:45:29.844Z,27.99
2023-02-14T21:50:29.824Z,24.1
2023-02-14T21:55:29.833Z,22.29
2023-02-14T22:00:29.831Z,22.62
2023-02-14T22:05:29.846Z,23.51
2023-02-14T22:10:29.841Z,21.61
2023-02-14T22:15:29.842Z,21.37
2023-02-14T22:20:29.835Z,21.74
2023-02-14T22:25:29.879Z,21.68
2023-02-14T22:30:29.837Z,21.16
2023-02-14T22:35:29.838Z,20.42
2023-02-14T22:40:29.844Z,21.6
2023-02-14T22:45:29.858Z,22.72
2023-02-14T22:50:29.846Z,22.8
2023-02-14T22:55:29.894Z,21.76
2023-02-14T23:00:29.846Z,21.17
2023-02-14T23:05:29.864Z,20.15
2023-02-14T23:10:29.856Z,23.94
2023-02-14T23:15:29.880Z,24.22
2023-02-14T23:20:29.860Z,23.23
2023-02-14T23:25:29.906Z,22.58
2023-02-14T23:30:29.903Z,22.8
2023-02-14T23:35:29.868Z,22.77
2023-02-14T23:40:29.907Z,23.09
2023-02-14T23:45:29.943Z,20.89
2023-02-14T23:50:29.904Z,22.71
2023-02-14T23:55:29.883Z,21.98
